Nunn, CO

10:18 PM MST on December 22, 2014 (GMT -0700)
MesoWest | Change Station
CLOSE
Current Station
Personal Weather Station
Location: Carr, CO
Elevation: 5899 ft
Nearby Weather Stations
Active Advisory: High Wind Watch

Elev 5899 ft 40.87 °N, 104.73 °W | Updated 16 days ago

Snow
Snow
23 °F
Feels Like 5 °F
N
35
Wind Variable Wind from NNW
Gusts 51 mph

Today
High -- | Low -- °F
--% Chance of Precip.
Yesterday
High -- | Low -- °F
Precip. -- in
7:20 AM 4:34 PM
New Moon, 2% visible
Pressure 29.85 in
Visibility 10.0 miles
Clouds Scattered Clouds 10000 ft
Windchill 5 °F
Dew Point 14 °F
Humidity 64%
Rainfall -999.00 in
Snow Depth Not available.
UV 0 out of 12
Pollen .10 out of 12
Air Quality Not available.
Flu Activity Not available.
METAR KFEW 230456Z AUTO 33018G29KT 10SM SCT100 M05/M09 A2974 RMK AO2 PK WND 33027/32 SLP106 T10481092 $

More Conditions Fewer Conditions

Pressure 29.85 in
Visibility 10.0 miles
Clouds Scattered Clouds 10000 ft
Windchill 5 °F
Dew Point 14 °F
Humidity 64%
Rainfall -999.00 in
Snow Depth Not available.
UV 0 out of 12
Pollen .10 out of 12
Air Quality Not available.
Flu Activity Not available.
METAR KFEW 230456Z AUTO 33018G29KT 10SM SCT100 M05/M09 A2974 RMK AO2 PK WND 33027/32 SLP106 T10481092 $

More Conditions Fewer Conditions

10-Day Weather Forecast

Almanac

Astronomy

Dec. 22, 2014 Rise Set
Actual Time
Civil Twilight
Nautical Twilight
Astronomical Twilight
Moon
Length of Visible Light
Length of Day
Tomorrow will be .
, % of the Moon is Illuminated

Today's Extremes

State Highs State Lows

Community

WunderPhotos

Upload Photos

1,779,781 photos uploaded!

WunderBlogs® & News

Nearby

Air Quality

  Air Quality AQ Index Pollutant
Not available.

Snow Depth

Station Depth Elevation

Earthquake Activity

City Distance Mag. Time & Date
Minimum magnitude displayed is 2.5.

Coastal Water Temperatures

Place Temperature

Nearby Weather Stations